createdAt,value
2018-11-27T00:01:00.045Z,44.50
2018-11-27T00:03:26.018Z,44.79
2018-11-27T00:05:52.003Z,44.60
2018-11-27T00:08:18.019Z,44.55
2018-11-27T00:10:44.021Z,44.45
2018-11-27T00:13:10.013Z,44.72
2018-11-27T00:15:36.110Z,44.37
2018-11-27T00:18:02.116Z,44.48
2018-11-27T00:20:28.129Z,44.34
2018-11-27T00:22:54.123Z,44.46
2018-11-27T00:25:20.161Z,44.47
2018-11-27T00:27:46.152Z,44.58
2018-11-27T00:30:12.143Z,44.44
2018-11-27T00:32:38.153Z,44.33
2018-11-27T00:35:04.159Z,44.40
2018-11-27T00:37:30.160Z,44.31
2018-11-27T00:39:56.162Z,44.49
2018-11-27T00:42:22.171Z,44.54
2018-11-27T00:44:48.183Z,44.26
2018-11-27T00:47:14.183Z,44.17
2018-11-27T00:49:40.183Z,44.43
2018-11-27T00:52:06.211Z,44.46
2018-11-27T00:54:32.207Z,44.49
2018-11-27T00:56:58.205Z,44.36
2018-11-27T00:59:24.194Z,44.46
2018-11-27T01:01:50.207Z,44.26
2018-11-27T01:04:16.228Z,44.28
2018-11-27T01:06:42.268Z,44.23
2018-11-27T01:09:08.288Z,44.28
2018-11-27T01:11:34.272Z,44.22
2018-11-27T01:14:00.292Z,43.99
2018-11-27T01:16:26.281Z,44.12
2018-11-27T01:18:52.289Z,44.10
2018-11-27T01:21:18.304Z,44.13
2018-11-27T01:23:44.317Z,44.31
2018-11-27T01:26:10.306Z,44.03
2018-11-27T01:28:36.318Z,44.10
2018-11-27T01:31:02.309Z,44.17
2018-11-27T01:33:28.302Z,44.38
2018-11-27T01:35:54.311Z,44.21
2018-11-27T01:38:20.291Z,44.37
2018-11-27T01:40:46.354Z,44.13
2018-11-27T01:43:12.367Z,44.07
2018-11-27T01:45:38.343Z,44.33
2018-11-27T01:48:04.355Z,44.02
2018-11-27T01:50:30.343Z,44.17
2018-11-27T01:52:56.370Z,44.30
2018-11-27T01:55:22.404Z,44.06
2018-11-27T01:57:48.532Z,44.27
2018-11-27T02:00:14.518Z,44.19
2018-11-27T02:02:40.501Z,44.23
2018-11-27T02:05:06.517Z,44.09
2018-11-27T02:07:32.500Z,43.90
2018-11-27T02:09:58.543Z,44.27
2018-11-27T02:12:24.531Z,43.97
2018-11-27T02:14:50.521Z,43.97
2018-11-27T02:17:16.510Z,44.04
2018-11-27T02:19:42.514Z,44.00
2018-11-27T02:22:08.562Z,44.21
2018-11-27T02:24:34.536Z,44.03
2018-11-27T02:27:00.515Z,43.86
2018-11-27T02:29:26.492Z,43.96
2018-11-27T02:31:52.509Z,43.96
2018-11-27T02:34:18.526Z,43.94
2018-11-27T02:36:44.604Z,44.01
2018-11-27T02:39:10.573Z,43.95
2018-11-27T02:41:36.582Z,43.89
2018-11-27T02:44:02.597Z,44.00
2018-11-27T02:46:28.594Z,43.85
2018-11-27T02:48:54.588Z,44.08
2018-11-27T02:51:20.621Z,43.96
2018-11-27T02:53:46.620Z,44.01
2018-11-27T02:56:12.604Z,43.98
2018-11-27T02:58:38.593Z,43.92
2018-11-27T03:01:04.612Z,43.98
2018-11-27T03:03:30.614Z,44.01
2018-11-27T03:05:56.607Z,43.92
2018-11-27T03:08:22.709Z,44.18
2018-11-27T03:10:48.571Z,43.97
2018-11-27T03:13:14.597Z,43.89
2018-11-27T03:15:40.638Z,43.95
2018-11-27T03:18:06.623Z,43.94
2018-11-27T03:20:32.617Z,43.96
2018-11-27T03:22:58.638Z,43.82
2018-11-27T03:25:24.614Z,43.86
2018-11-27T03:27:50.632Z,43.79
2018-11-27T03:30:16.658Z,43.90
2018-11-27T03:32:42.628Z,43.83
2018-11-27T03:35:08.649Z,43.84
2018-11-27T03:37:34.685Z,43.99
2018-11-27T03:40:00.712Z,43.92
2018-11-27T03:42:26.688Z,44.02
2018-11-27T03:44:52.708Z,44.17
2018-11-27T03:47:18.695Z,44.01
2018-11-27T03:49:44.708Z,43.98
2018-11-27T03:52:10.734Z,43.89
2018-11-27T03:54:36.750Z,43.88
2018-11-27T03:57:02.793Z,43.86
2018-11-27T03:59:28.806Z,43.91
2018-11-27T04:01:54.791Z,44.01
2018-11-27T04:04:20.781Z,43.80
2018-11-27T04:06:46.791Z,44.01
2018-11-27T04:09:12.787Z,44.02
2018-11-27T04:11:38.785Z,44.10
2018-11-27T04:14:04.766Z,43.80
2018-11-27T04:16:30.767Z,43.87
2018-11-27T04:18:56.832Z,43.89
2018-11-27T04:21:22.828Z,43.95
2018-11-27T04:23:48.820Z,43.97
2018-11-27T04:26:14.847Z,44.03
2018-11-27T04:28:40.851Z,43.70
2018-11-27T04:31:06.870Z,43.69
2018-11-27T04:33:32.867Z,43.65
2018-11-27T04:35:58.881Z,43.89
2018-11-27T04:38:24.889Z,43.74
2018-11-27T04:40:50.888Z,43.84
2018-11-27T04:43:16.910Z,43.87
2018-11-27T04:45:42.912Z,43.71
2018-11-27T04:48:08.902Z,43.97
2018-11-27T04:50:34.904Z,43.78
2018-11-27T04:53:00.918Z,43.82
2018-11-27T04:55:26.918Z,43.71
2018-11-27T04:57:52.906Z,43.76
2018-11-27T05:00:18.931Z,43.81
2018-11-27T05:02:44.934Z,43.63
2018-11-27T05:05:10.959Z,43.98
2018-11-27T05:07:36.973Z,43.95
2018-11-27T05:10:02.972Z,43.93
2018-11-27T05:12:28.958Z,43.70
2018-11-27T05:14:54.979Z,43.66
2018-11-27T05:17:21.015Z,43.70
2018-11-27T05:19:46.993Z,43.82
2018-11-27T05:22:13.018Z,43.60
2018-11-27T05:24:38.993Z,43.76
2018-11-27T05:27:04.984Z,43.62
2018-11-27T05:29:30.978Z,43.80
2018-11-27T05:31:56.977Z,43.68
2018-11-27T05:34:22.956Z,43.65
2018-11-27T05:36:48.983Z,43.94
2018-11-27T05:39:15.002Z,43.69
2018-11-27T05:41:41.056Z,43.56
2018-11-27T05:44:07.083Z,43.74
2018-11-27T05:46:33.109Z,43.67
2018-11-27T05:48:59.136Z,43.85
2018-11-27T05:51:25.128Z,43.70
2018-11-27T05:53:51.171Z,43.86
2018-11-27T05:56:17.161Z,44.27
2018-11-27T05:58:43.173Z,44.48
2018-11-27T06:01:09.155Z,44.58
2018-11-27T06:03:35.161Z,44.60
2018-11-27T06:06:01.157Z,44.77
2018-11-27T06:08:27.162Z,44.77
2018-11-27T06:10:53.157Z,44.90
2018-11-27T06:13:19.136Z,44.91
2018-11-27T06:15:45.168Z,44.86
2018-11-27T06:18:11.193Z,45.08
2018-11-27T06:20:37.175Z,45.00
2018-11-27T06:23:03.242Z,44.98
2018-11-27T06:25:29.257Z,45.10
2018-11-27T06:27:55.233Z,45.13
2018-11-27T06:30:21.247Z,45.28
2018-11-27T06:32:47.320Z,45.27
2018-11-27T06:35:13.339Z,45.29
2018-11-27T06:37:39.354Z,45.29
2018-11-27T06:40:05.378Z,45.26
2018-11-27T06:42:31.361Z,45.19
2018-11-27T06:44:57.421Z,45.23
2018-11-27T06:47:23.457Z,45.22
2018-11-27T06:49:49.446Z,45.31
2018-11-27T06:52:15.424Z,45.45
2018-11-27T06:54:41.408Z,45.35
2018-11-27T06:57:07.489Z,45.38
2018-11-27T06:59:33.486Z,45.35
2018-11-27T07:01:59.473Z,45.33
2018-11-27T07:04:25.542Z,45.27
2018-11-27T07:06:51.530Z,45.28
2018-11-27T07:09:17.549Z,45.37
2018-11-27T07:11:43.563Z,45.33
2018-11-27T07:14:09.587Z,45.47
2018-11-27T07:16:35.561Z,45.50
2018-11-27T07:19:01.572Z,45.45
2018-11-27T07:21:27.608Z,45.55
2018-11-27T07:23:53.643Z,45.62
2018-11-27T07:26:19.663Z,45.61
2018-11-27T07:28:45.673Z,45.62
2018-11-27T07:31:11.718Z,45.66
2018-11-27T07:33:37.717Z,45.69
2018-11-27T07:36:03.759Z,45.70
2018-11-27T07:38:29.744Z,45.67
2018-11-27T07:40:55.793Z,45.71
2018-11-27T07:43:21.809Z,45.67
2018-11-27T07:45:47.879Z,45.84
2018-11-27T07:48:13.882Z,45.74
2018-11-27T07:50:39.952Z,45.76
2018-11-27T07:53:05.960Z,45.74
2018-11-27T07:55:31.959Z,45.71
2018-11-27T07:57:57.984Z,45.76
2018-11-27T08:00:24.154Z,45.71
2018-11-27T08:02:50.175Z,45.81
2018-11-27T08:05:16.192Z,45.80
2018-11-27T08:07:42.245Z,45.92
2018-11-27T08:10:08.286Z,45.79
2018-11-27T08:12:34.262Z,45.84
2018-11-27T08:15:00.249Z,45.84
2018-11-27T08:17:26.269Z,45.83
2018-11-27T08:19:52.282Z,45.92
2018-11-27T08:22:18.381Z,45.99
2018-11-27T08:24:44.433Z,45.94
2018-11-27T08:27:10.433Z,45.94
2018-11-27T08:29:36.421Z,45.93
2018-11-27T08:32:02.483Z,46.15
2018-11-27T08:34:28.490Z,46.13
2018-11-27T08:36:54.546Z,45.94
2018-11-27T08:39:20.548Z,45.91
2018-11-27T08:41:46.553Z,45.92
2018-11-27T08:44:12.595Z,45.90
2018-11-27T08:46:38.604Z,45.88
2018-11-27T08:49:04.605Z,45.89
2018-11-27T08:51:30.617Z,45.90
2018-11-27T08:53:56.662Z,45.95
2018-11-27T08:56:22.675Z,46.02
2018-11-27T08:58:48.698Z,45.93
2018-11-27T09:01:14.706Z,45.94
2018-11-27T09:03:40.729Z,45.93
2018-11-27T09:06:06.757Z,45.96
2018-11-27T09:08:32.773Z,45.92
2018-11-27T09:10:58.845Z,45.90
2018-11-27T09:13:24.852Z,45.90
2018-11-27T09:15:50.855Z,45.87
2018-11-27T09:18:16.831Z,45.88
2018-11-27T09:20:42.846Z,45.86
2018-11-27T09:23:08.874Z,45.86
2018-11-27T09:25:34.891Z,45.85
2018-11-27T09:28:00.909Z,45.80
2018-11-27T09:30:26.959Z,45.81
2018-11-27T09:32:52.956Z,45.80
2018-11-27T09:35:19.032Z,45.81
2018-11-27T09:37:45.038Z,45.80
2018-11-27T09:40:11.037Z,45.77
2018-11-27T09:42:37.052Z,45.75
2018-11-27T09:45:03.047Z,45.73
2018-11-27T09:47:29.066Z,45.72
2018-11-27T09:49:55.078Z,45.71
2018-11-27T09:52:21.140Z,45.74
2018-11-27T09:54:47.120Z,45.73
2018-11-27T09:57:13.142Z,45.73
2018-11-27T09:59:39.158Z,45.74
2018-11-27T10:02:05.141Z,45.76
2018-11-27T10:04:31.252Z,45.77
2018-11-27T10:06:57.271Z,45.80
2018-11-27T10:09:23.338Z,45.77
2018-11-27T10:11:49.287Z,45.77
2018-11-27T10:14:15.277Z,45.77
2018-11-27T10:16:41.321Z,45.77
2018-11-27T10:19:07.311Z,45.79
2018-11-27T10:21:33.378Z,45.74
2018-11-27T10:23:59.411Z,45.74
2018-11-27T10:26:25.422Z,45.75
2018-11-27T10:28:51.447Z,45.75
2018-11-27T10:31:17.564Z,45.70
2018-11-27T10:33:43.586Z,45.66
2018-11-27T10:36:09.585Z,45.79
2018-11-27T10:38:35.589Z,45.65
2018-11-27T10:41:01.574Z,45.72
2018-11-27T10:43:27.557Z,45.92
2018-11-27T10:45:53.549Z,46.14
2018-11-27T10:48:19.695Z,46.33
2018-11-27T10:50:45.669Z,46.17
2018-11-27T10:53:11.723Z,46.23
2018-11-27T10:55:37.717Z,46.29
2018-11-27T10:58:03.700Z,46.41
2018-11-27T11:00:29.722Z,46.22
2018-11-27T11:02:55.926Z,46.33
2018-11-27T11:05:21.913Z,46.32
2018-11-27T11:07:47.901Z,46.52
2018-11-27T11:10:13.952Z,46.51
2018-11-27T11:12:39.928Z,46.65
2018-11-27T11:15:05.942Z,46.49
2018-11-27T11:17:32.044Z,46.43
2018-11-27T11:19:58.112Z,46.37
2018-11-27T11:22:24.110Z,46.34
2018-11-27T11:24:50.118Z,46.35
2018-11-27T11:27:16.103Z,46.31
2018-11-27T11:29:42.121Z,46.28
2018-11-27T11:32:08.138Z,46.25
2018-11-27T11:34:34.187Z,46.22
2018-11-27T11:37:00.191Z,46.24
2018-11-27T11:39:26.250Z,46.23
2018-11-27T11:41:52.278Z,46.22
2018-11-27T11:44:18.290Z,46.22
2018-11-27T11:46:44.280Z,46.18
2018-11-27T11:49:10.281Z,46.19
2018-11-27T11:51:36.279Z,46.16
2018-11-27T11:54:02.298Z,46.19
2018-11-27T11:56:28.321Z,46.16
2018-11-27T11:58:54.391Z,46.16
2018-11-27T12:01:20.405Z,46.15
2018-11-27T12:03:46.429Z,46.14
2018-11-27T12:06:12.426Z,46.13
2018-11-27T12:08:38.414Z,46.13
2018-11-27T12:11:04.443Z,46.13
2018-11-27T12:13:30.402Z,46.13
2018-11-27T12:15:56.390Z,46.11
2018-11-27T12:18:22.392Z,46.11
2018-11-27T12:20:48.387Z,46.10
2018-11-27T12:23:14.390Z,46.07
2018-11-27T12:25:40.370Z,46.08
2018-11-27T12:28:06.358Z,46.08
2018-11-27T12:30:32.371Z,46.04
2018-11-27T12:32:58.393Z,46.05
2018-11-27T12:35:24.395Z,46.04
2018-11-27T12:37:50.385Z,46.02
2018-11-27T12:40:16.370Z,46.03
2018-11-27T12:42:42.375Z,46.02
2018-11-27T12:45:08.379Z,45.98
2018-11-27T12:47:34.353Z,46.01
2018-11-27T12:50:00.380Z,45.97
2018-11-27T12:52:26.360Z,45.96
2018-11-27T12:54:52.349Z,45.97
2018-11-27T12:57:18.366Z,45.96
2018-11-27T12:59:44.392Z,45.97
2018-11-27T13:02:10.400Z,45.97
2018-11-27T13:04:36.441Z,45.97
2018-11-27T13:07:02.510Z,45.95
2018-11-27T13:09:28.503Z,45.93
2018-11-27T13:11:54.498Z,45.96
2018-11-27T13:14:20.505Z,45.93
2018-11-27T13:16:46.507Z,45.91
2018-11-27T13:19:12.505Z,45.92
2018-11-27T13:21:38.504Z,45.91
2018-11-27T13:24:04.549Z,45.92
2018-11-27T13:26:30.562Z,45.91
2018-11-27T13:28:56.555Z,45.88
2018-11-27T13:31:22.576Z,45.86
2018-11-27T13:33:48.587Z,45.86
2018-11-27T13:36:14.613Z,45.84
2018-11-27T13:38:40.611Z,45.82
2018-11-27T13:41:06.603Z,45.81
2018-11-27T13:43:32.587Z,45.79
2018-11-27T13:45:58.599Z,45.77
2018-11-27T13:48:24.633Z,45.74
2018-11-27T13:50:50.757Z,45.73
2018-11-27T13:53:16.758Z,45.68
2018-11-27T13:55:42.762Z,45.69
2018-11-27T13:58:08.760Z,45.66
2018-11-27T14:00:34.789Z,45.66
2018-11-27T14:03:00.822Z,45.58
2018-11-27T14:05:26.817Z,45.62
2018-11-27T14:07:52.820Z,45.58
2018-11-27T14:10:18.843Z,45.60
2018-11-27T14:12:44.832Z,45.54
2018-11-27T14:15:10.850Z,45.54
2018-11-27T14:17:36.874Z,45.50
2018-11-27T14:20:02.873Z,45.48
2018-11-27T14:22:28.864Z,45.49
2018-11-27T14:24:54.887Z,45.46
2018-11-27T14:27:20.907Z,45.42
2018-11-27T14:29:46.900Z,45.42
2018-11-27T14:32:12.957Z,45.40
2018-11-27T14:34:38.998Z,45.36
2018-11-27T14:37:04.976Z,45.35
2018-11-27T14:39:31.050Z,45.36
2018-11-27T14:41:57.047Z,45.41
2018-11-27T14:44:23.082Z,45.42
2018-11-27T14:46:49.082Z,45.53
2018-11-27T14:49:15.120Z,46.95
2018-11-27T14:51:41.106Z,46.88
2018-11-27T14:54:07.138Z,47.45
2018-11-27T14:56:33.112Z,47.45
2018-11-27T14:58:59.131Z,47.29
2018-11-27T15:01:25.154Z,48.03
2018-11-27T15:03:51.137Z,48.00
2018-11-27T15:06:17.142Z,47.57
2018-11-27T15:08:43.218Z,47.77
2018-11-27T15:11:12.668Z,47.56
2018-11-27T15:13:35.299Z,47.38
2018-11-27T15:16:01.348Z,47.52
2018-11-27T15:18:27.360Z,47.38
2018-11-27T15:20:54.664Z,47.23
2018-11-27T15:23:26.116Z,47.05
2018-11-27T15:25:52.094Z,46.98
2018-11-27T15:28:18.105Z,47.04
2018-11-27T15:30:44.115Z,47.00
2018-11-27T15:33:10.150Z,47.01
2018-11-27T15:35:36.535Z,47.03
2018-11-27T15:38:02.566Z,46.97
2018-11-27T15:40:29.520Z,46.87
2018-11-27T15:42:55.594Z,46.85
2018-11-27T15:45:22.597Z,46.85
2018-11-27T15:47:48.769Z,46.79
2018-11-27T15:50:14.756Z,46.78
2018-11-27T15:52:40.801Z,46.76
2018-11-27T15:55:07.360Z,46.70
2018-11-27T15:57:33.372Z,46.67
2018-11-27T15:59:59.397Z,46.57
2018-11-27T16:02:25.412Z,46.57
2018-11-27T16:04:51.537Z,46.55
2018-11-27T16:07:17.574Z,46.50
2018-11-27T16:09:43.582Z,46.47
2018-11-27T16:12:09.647Z,46.46
2018-11-27T16:14:35.623Z,46.54
2018-11-27T16:17:01.650Z,46.50
2018-11-27T16:19:27.668Z,46.47
2018-11-27T16:21:53.684Z,46.58
2018-11-27T16:24:19.679Z,47.31
2018-11-27T16:26:45.771Z,47.41
2018-11-27T16:29:11.757Z,47.01
2018-11-27T16:31:37.809Z,47.14
2018-11-27T16:34:04.146Z,46.97
2018-11-27T16:36:30.164Z,47.27
2018-11-27T16:38:56.214Z,47.87
2018-11-27T16:41:22.259Z,47.67
2018-11-27T16:43:48.246Z,47.50
2018-11-27T16:46:14.270Z,48.28
2018-11-27T16:48:40.276Z,47.93
2018-11-27T16:51:06.398Z,48.68
2018-11-27T16:53:32.425Z,48.10
2018-11-27T16:55:58.438Z,48.23
2018-11-27T16:58:24.721Z,48.63
2018-11-27T17:00:51.670Z,48.74
2018-11-27T17:03:17.783Z,48.85
2018-11-27T17:05:44.378Z,49.20
2018-11-27T17:08:12.989Z,48.88
2018-11-27T17:10:38.993Z,49.50
2018-11-27T17:13:04.987Z,48.64
2018-11-27T17:15:31.023Z,48.99
2018-11-27T17:17:57.021Z,48.71
2018-11-27T17:20:23.121Z,48.87
2018-11-27T17:22:49.067Z,49.28
2018-11-27T17:25:15.113Z,48.57
2018-11-27T17:27:41.943Z,48.69
2018-11-27T17:30:07.122Z,48.69
2018-11-27T17:32:33.100Z,48.82
2018-11-27T17:34:59.398Z,48.71
2018-11-27T17:37:25.408Z,48.60
2018-11-27T17:39:51.405Z,48.60
2018-11-27T17:42:17.596Z,48.59
2018-11-27T17:44:44.561Z,48.58
2018-11-27T17:47:10.790Z,48.86
2018-11-27T17:49:37.646Z,48.73
2018-11-27T17:52:03.729Z,48.53
2018-11-27T17:54:29.733Z,48.93
2018-11-27T17:56:56.217Z,48.68
2018-11-27T17:59:22.214Z,48.84
2018-11-27T18:01:49.087Z,48.62
2018-11-27T18:04:15.135Z,48.92
2018-11-27T18:06:41.155Z,49.05
2018-11-27T18:09:10.846Z,48.88
2018-11-27T18:11:37.692Z,48.58
2018-11-27T18:14:03.714Z,48.86
2018-11-27T18:16:31.187Z,48.81
2018-11-27T18:18:57.221Z,49.13
2018-11-27T18:21:25.393Z,48.70
2018-11-27T18:23:51.623Z,48.81
2018-11-27T18:26:17.723Z,48.86
2018-11-27T18:28:43.744Z,48.86
2018-11-27T18:31:09.744Z,49.09
2018-11-27T18:33:36.832Z,48.78
2018-11-27T18:36:02.829Z,48.83
2018-11-27T18:38:28.870Z,48.76
2018-11-27T18:40:54.860Z,48.87
2018-11-27T18:43:20.892Z,48.98
2018-11-27T18:45:47.721Z,49.26
2018-11-27T18:48:13.812Z,49.37
2018-11-27T18:50:40.588Z,49.06
2018-11-27T18:53:06.663Z,49.25
2018-11-27T18:55:36.240Z,49.29
2018-11-27T18:58:02.275Z,49.40
2018-11-27T19:00:28.284Z,49.26
2018-11-27T19:02:54.322Z,49.43
2018-11-27T19:05:20.419Z,49.73
2018-11-27T19:07:46.388Z,49.33
2018-11-27T19:10:12.464Z,49.83
2018-11-27T19:12:38.534Z,49.77
2018-11-27T19:15:04.601Z,50.27
2018-11-27T19:17:30.631Z,50.23
2018-11-27T19:19:56.723Z,49.91
2018-11-27T19:22:22.745Z,49.86
2018-11-27T19:24:48.772Z,49.86
2018-11-27T19:27:15.821Z,49.99
2018-11-27T19:29:42.223Z,50.08
2018-11-27T19:32:08.235Z,49.68
2018-11-27T19:34:34.268Z,49.45
2018-11-27T19:37:00.303Z,49.25
2018-11-27T19:39:26.631Z,49.17
2018-11-27T19:41:52.668Z,49.50
2018-11-27T19:44:18.667Z,49.49
2018-11-27T19:46:44.700Z,49.23
2018-11-27T19:49:10.816Z,49.50
2018-11-27T19:51:36.879Z,49.49
2018-11-27T19:54:02.902Z,49.50
2018-11-27T19:56:28.982Z,49.36
2018-11-27T19:58:54.984Z,49.51
2018-11-27T20:01:21.048Z,49.36
2018-11-27T20:03:47.072Z,49.46
2018-11-27T20:06:13.074Z,49.27
2018-11-27T20:08:39.118Z,49.52
2018-11-27T20:11:05.134Z,49.50
2018-11-27T20:13:31.176Z,49.59
2018-11-27T20:15:57.180Z,49.52
2018-11-27T20:18:23.200Z,49.28
2018-11-27T20:20:49.221Z,49.44
2018-11-27T20:23:15.291Z,49.26
2018-11-27T20:25:41.276Z,49.43
2018-11-27T20:28:07.334Z,49.42
2018-11-27T20:30:33.361Z,49.32
2018-11-27T20:32:59.360Z,49.19
2018-11-27T20:35:28.443Z,49.29
2018-11-27T20:37:54.485Z,49.18
2018-11-27T20:40:20.587Z,49.12
2018-11-27T20:42:46.602Z,49.23
2018-11-27T20:45:12.647Z,49.24
2018-11-27T20:47:38.726Z,49.09
2018-11-27T20:50:04.714Z,49.06
2018-11-27T20:52:30.849Z,49.01
2018-11-27T20:54:56.874Z,49.06
2018-11-27T20:57:22.929Z,49.06
2018-11-27T20:59:48.998Z,49.05
2018-11-27T21:02:15.011Z,48.96
2018-11-27T21:04:40.997Z,49.02
2018-11-27T21:07:07.044Z,49.13
2018-11-27T21:09:33.094Z,49.13
2018-11-27T21:11:59.235Z,49.11
2018-11-27T21:14:25.414Z,49.08
2018-11-27T21:16:51.415Z,49.08
2018-11-27T21:19:17.396Z,49.08
2018-11-27T21:21:43.384Z,48.91
2018-11-27T21:24:09.396Z,48.92
2018-11-27T21:26:35.681Z,49.00
2018-11-27T21:29:01.433Z,48.73
2018-11-27T21:31:27.423Z,48.76
2018-11-27T21:33:53.441Z,48.70
2018-11-27T21:36:19.454Z,48.67
2018-11-27T21:38:45.476Z,48.58
2018-11-27T21:41:11.493Z,48.47
2018-11-27T21:43:37.498Z,48.48
2018-11-27T21:46:03.474Z,48.42
2018-11-27T21:48:29.500Z,48.38
2018-11-27T21:50:55.503Z,48.31
2018-11-27T21:53:21.479Z,48.27
2018-11-27T21:55:47.472Z,48.22
2018-11-27T21:58:13.489Z,48.15
2018-11-27T22:00:39.469Z,48.14
2018-11-27T22:03:05.465Z,48.11
2018-11-27T22:05:31.481Z,48.05
2018-11-27T22:07:57.482Z,48.01
2018-11-27T22:10:23.479Z,47.99
2018-11-27T22:12:49.461Z,47.92
2018-11-27T22:15:15.467Z,47.87
2018-11-27T22:17:41.474Z,47.82
2018-11-27T22:20:07.467Z,47.80
2018-11-27T22:22:33.490Z,47.78
2018-11-27T22:24:59.467Z,47.74
2018-11-27T22:27:25.528Z,47.70
2018-11-27T22:29:51.533Z,47.65
2018-11-27T22:32:17.545Z,47.61
2018-11-27T22:34:43.523Z,47.59
2018-11-27T22:37:09.528Z,47.55
2018-11-27T22:39:35.547Z,47.51
2018-11-27T22:42:01.565Z,47.47
2018-11-27T22:44:27.572Z,47.42
2018-11-27T22:46:53.567Z,47.38
2018-11-27T22:49:19.538Z,47.35
2018-11-27T22:51:45.559Z,47.36
2018-11-27T22:54:11.571Z,47.32
2018-11-27T22:56:37.586Z,47.27
2018-11-27T22:59:03.597Z,47.25
2018-11-27T23:01:29.611Z,47.22
2018-11-27T23:03:55.595Z,47.22
2018-11-27T23:06:21.603Z,47.16
2018-11-27T23:08:47.603Z,47.13
2018-11-27T23:11:13.598Z,47.08
2018-11-27T23:13:39.594Z,47.08
2018-11-27T23:16:05.600Z,47.03
2018-11-27T23:18:31.607Z,47.04
2018-11-27T23:20:57.629Z,46.99
2018-11-27T23:23:23.631Z,46.94
2018-11-27T23:25:49.610Z,46.89
2018-11-27T23:28:15.607Z,46.90
2018-11-27T23:30:41.603Z,46.89
2018-11-27T23:33:07.606Z,46.88
2018-11-27T23:35:33.625Z,46.83
2018-11-27T23:37:59.642Z,46.81
2018-11-27T23:40:25.642Z,46.78
2018-11-27T23:42:51.631Z,46.77
2018-11-27T23:45:17.632Z,46.75
2018-11-27T23:47:43.662Z,46.74
2018-11-27T23:50:09.657Z,46.69
2018-11-27T23:52:35.671Z,46.66
2018-11-27T23:55:01.649Z,46.59
2018-11-27T23:57:27.656Z,46.66
2018-11-27T23:59:53.683Z,46.53
